Terminal Aerodrome Forecast
Issued by NWS Wilmington, OH

Current Version | Previous Version | Text Only | Print | Product List | Glossary Off
Versions: 1 2 3 4 5 6 7 8 9 10 11 12 13 14 15

000
FTUS41 KILN 211733 AAB
TAFILN
TAF AMD
KILN 211733Z 2118/2218 35005KT P6SM BKN018
     FM211900 33008KT P6SM BKN022
     FM212000 33008KT P6SM BKN200
     FM212300 33010KT P6SM BKN050 OVC120
     FM220400 36012KT P6SM FEW250
     FM221400 03010KT P6SM SKC=

USA.gov is the U.S. government's official web portal to all federal, state and local government web resources and services.